Time;durP1;ratioP1;P1;durP2;ratioP2;P2;SDS_P1;SDS_P2;PMS_P1;PMS_P2;Temp;Humidity;BMP_temperature;BMP_pressure;BME280_temperature;BME280_humidity;BME280_pressure;Samples;Min_cycle;Max_cycle;Signal;HPM_P1;HPM_P2
2023/07/25 00:00:08;;;;;;;8.10;5.18;;;17.00;99.90;;;;;;4945743;29;20039;-64
2023/07/25 00:02:40;;;;;;;8.53;5.87;;;17.00;99.90;;;;;;4943675;29;20039;-64
2023/07/25 00:05:07;;;;;;;6.22;5.00;;;17.00;99.90;;;;;;4925517;29;20593;-64
2023/07/25 00:07:34;;;;;;;7.18;5.30;;;17.10;99.90;;;;;;4946851;29;20047;-64
2023/07/25 00:10:06;;;;;;;10.80;6.05;;;17.10;99.90;;;;;;4943046;29;20035;-64
2023/07/25 00:12:38;;;;;;;9.05;6.10;;;17.10;99.90;;;;;;4935285;29;20047;-64
2023/07/25 00:15:10;;;;;;;8.90;5.97;;;17.10;99.90;;;;;;4938912;29;20506;-64
2023/07/25 00:17:42;;;;;;;9.45;6.13;;;17.10;99.90;;;;;;4924313;29;20418;-64
2023/07/25 00:20:14;;;;;;;8.65;6.57;;;17.10;99.90;;;;;;4938435;29;20054;-64
2023/07/25 00:22:45;;;;;;;7.22;5.60;;;17.10;99.90;;;;;;4946168;29;20074;-64
2023/07/25 00:25:12;;;;;;;8.60;5.45;;;17.00;99.90;;;;;;4942638;29;20391;-64
2023/07/25 00:27:44;;;;;;;7.50;5.65;;;17.10;99.90;;;;;;4942535;29;20043;-64
2023/07/25 00:30:16;;;;;;;10.05;5.30;;;17.10;99.90;;;;;;4943408;29;20047;-64
2023/07/25 00:32:48;;;;;;;11.60;5.03;;;17.10;99.90;;;;;;4929752;29;20593;-64
2023/07/25 00:35:20;;;;;;;6.40;4.95;;;17.10;99.90;;;;;;4938294;29;20207;-63
2023/07/25 00:37:53;;;;;;;6.38;4.80;;;17.10;99.90;;;;;;4922001;29;20051;-64
2023/07/25 00:40:27;;;;;;;8.30;4.80;;;17.10;99.90;;;;;;4939790;29;20039;-64
2023/07/25 00:43:00;;;;;;;5.57;4.07;;;17.10;99.90;;;;;;4939128;29;20040;-64
2023/07/25 00:45:31;;;;;;;8.13;4.80;;;17.10;99.90;;;;;;4929992;29;20047;-64
2023/07/25 00:47:58;;;;;;;5.65;4.40;;;17.10;99.90;;;;;;4942356;29;20502;-64
2023/07/25 00:50:30;;;;;;;8.43;4.85;;;17.10;99.90;;;;;;4925700;29;20566;-64
2023/07/25 00:52:58;;;;;;;6.63;4.57;;;17.10;99.90;;;;;;4947561;29;20489;-64
2023/07/25 00:55:30;;;;;;;7.68;4.90;;;17.10;99.90;;;;;;4924003;29;20095;-64
2023/07/25 00:58:02;;;;;;;5.90;4.28;;;17.00;99.90;;;;;;4931455;29;20044;-64
2023/07/25 01:00:37;;;;;;;5.82;4.43;;;17.00;99.90;;;;;;4930279;29;20043;-64
2023/07/25 01:03:09;;;;;;;5.82;4.57;;;17.00;99.90;;;;;;4936389;29;20066;-64
2023/07/25 01:05:45;;;;;;;8.55;4.57;;;17.00;99.90;;;;;;4926877;29;20043;-64
2023/07/25 01:08:17;;;;;;;7.20;4.53;;;17.10;99.90;;;;;;4927796;29;20047;-64
2023/07/25 01:10:49;;;;;;;6.55;4.72;;;17.10;99.90;;;;;;4942342;29;20073;-64
2023/07/25 01:13:22;;;;;;;8.13;5.03;;;17.10;99.90;;;;;;4939176;29;20054;-64
2023/07/25 01:15:54;;;;;;;7.45;5.32;;;17.00;99.90;;;;;;4946178;29;20044;-64
2023/07/25 01:18:26;;;;;;;7.65;5.18;;;17.00;99.90;;;;;;4929072;29;20036;-64
2023/07/25 01:20:53;;;;;;;6.53;5.10;;;17.00;99.90;;;;;;4936841;29;20071;-64
2023/07/25 01:23:27;;;;;;;7.68;5.30;;;17.00;99.90;;;;;;4921691;29;20040;-64
2023/07/25 01:25:59;;;;;;;6.97;5.03;;;17.10;99.90;;;;;;4925968;29;20055;-64
2023/07/25 01:28:27;;;;;;;7.15;5.32;;;17.10;99.90;;;;;;4939090;29;20082;-64
2023/07/25 01:30:58;;;;;;;6.80;5.18;;;17.10;99.90;;;;;;4927466;29;20091;-64
2023/07/25 01:33:30;;;;;;;7.30;5.53;;;17.20;99.90;;;;;;4941914;29;20475;-64
2023/07/25 01:36:02;;;;;;;8.18;5.40;;;17.10;99.90;;;;;;4940495;29;20063;-64
2023/07/25 01:38:34;;;;;;;6.97;5.47;;;17.10;99.90;;;;;;4926734;29;20050;-64
2023/07/25 01:41:06;;;;;;;8.43;5.45;;;17.10;99.90;;;;;;4932207;28;20046;-64
2023/07/25 01:43:33;;;;;;;8.10;5.90;;;17.10;99.90;;;;;;4945363;29;20039;-63
2023/07/25 01:46:05;;;;;;;6.97;4.88;;;17.10;99.90;;;;;;4937242;29;20050;-64
2023/07/25 01:48:37;;;;;;;7.22;4.85;;;17.10;99.90;;;;;;4927852;29;20057;-64
2023/07/25 01:51:09;;;;;;;7.50;5.63;;;17.10;99.90;;;;;;4942156;29;20054;-64
2023/07/25 01:53:41;;;;;;;6.55;5.85;;;17.10;99.90;;;;;;4933319;29;20058;-64
2023/07/25 01:56:07;;;;;;;8.40;5.93;;;17.10;99.90;;;;;;4934008;29;20054;-64
2023/07/25 01:58:34;;;;;;;8.80;6.15;;;17.10;99.90;;;;;;4943634;29;20418;-64
2023/07/25 02:01:06;;;;;;;7.50;5.78;;;17.00;99.90;;;;;;4943069;29;20048;-64
2023/07/25 02:03:33;;;;;;;8.48;5.40;;;16.90;99.90;;;;;;4945867;29;20123;-64
2023/07/25 02:06:06;;;;;;;10.85;5.57;;;16.90;99.90;;;;;;4929733;29;20070;-64
2023/07/25 02:08:38;;;;;;;9.82;5.95;;;16.90;99.90;;;;;;4942347;29;20051;-64
2023/07/25 02:11:10;;;;;;;7.72;5.05;;;16.90;99.90;;;;;;4944853;29;20138;-64
2023/07/25 02:13:42;;;;;;;6.82;4.80;;;16.90;99.90;;;;;;4939829;29;20510;-63
2023/07/25 02:16:13;;;;;;;6.60;5.10;;;16.90;99.90;;;;;;4924451;29;20519;-64
2023/07/25 02:18:40;;;;;;;7.38;5.30;;;16.90;99.90;;;;;;4932438;29;20047;-64
2023/07/25 02:21:12;;;;;;;6.22;4.43;;;16.80;99.90;;;;;;4929381;29;20147;-64
2023/07/25 02:23:44;;;;;;;6.30;4.32;;;16.80;99.90;;;;;;4940252;29;20106;-64
2023/07/25 02:26:15;;;;;;;6.20;4.30;;;16.80;99.90;;;;;;4936929;29;20115;-64
2023/07/25 02:28:47;;;;;;;6.70;3.80;;;16.90;99.90;;;;;;4939535;29;20095;-64
2023/07/25 02:31:19;;;;;;;5.80;3.72;;;16.90;99.90;;;;;;4932052;29;20039;-64
2023/07/25 02:33:51;;;;;;;5.28;4.18;;;16.80;99.90;;;;;;4926762;29;20066;-64
2023/07/25 02:36:23;;;;;;;6.05;3.63;;;16.90;99.90;;;;;;4944719;29;20131;-64
2023/07/25 02:38:50;;;;;;;7.22;4.25;;;16.80;99.90;;;;;;4942537;29;20039;-64
2023/07/25 02:41:23;;;;;;;4.75;3.30;;;16.80;99.90;;;;;;4933758;29;20593;-64
2023/07/25 02:43:55;;;;;;;6.50;3.65;;;16.80;99.90;;;;;;4929814;29;20040;-63
2023/07/25 02:46:27;;;;;;;4.53;3.20;;;16.80;99.90;;;;;;4925527;29;20070;-64
2023/07/25 02:48:55;;;;;;;6.60;3.33;;;16.80;99.90;;;;;;4937526;29;20063;-64
2023/07/25 02:51:27;;;;;;;6.50;3.47;;;16.80;99.90;;;;;;4922450;29;20530;-64
2023/07/25 02:53:59;;;;;;;4.45;3.85;;;16.70;99.90;;;;;;4943012;29;20047;-64
2023/07/25 02:56:31;;;;;;;7.72;3.78;;;16.70;99.90;;;;;;4938240;29;20043;-64
2023/07/25 02:59:02;;;;;;;6.93;3.85;;;16.70;99.90;;;;;;4942998;29;20055;-64
2023/07/25 03:01:34;;;;;;;4.95;3.15;;;16.80;99.90;;;;;;4933731;29;20075;-64
2023/07/25 03:04:06;;;;;;;4.57;3.33;;;16.70;99.90;;;;;;4943963;29;20706;-64
2023/07/25 03:06:38;;;;;;;5.93;3.67;;;16.70;99.90;;;;;;4940084;29;20071;-64
2023/07/25 03:09:05;;;;;;;4.65;3.10;;;16.80;99.90;;;;;;4941599;29;20039;-64
2023/07/25 03:11:37;;;;;;;6.13;4.47;;;16.80;99.90;;;;;;4946270;29;20050;-64
2023/07/25 03:14:08;;;;;;;4.15;3.22;;;16.70;99.90;;;;;;4918855;29;20047;-64
2023/07/25 03:16:40;;;;;;;5.68;3.80;;;16.80;99.90;;;;;;4931777;29;20143;-65
2023/07/25 03:19:07;;;;;;;5.38;3.72;;;16.80;99.90;;;;;;4938545;29;20123;-64
2023/07/25 03:21:39;;;;;;;6.85;3.42;;;16.70;99.90;;;;;;4933011;29;20044;-64
2023/07/25 03:24:11;;;;;;;6.22;3.75;;;16.80;99.90;;;;;;4941671;29;20520;-64
2023/07/25 03:26:38;;;;;;;11.25;3.85;;;16.70;99.90;;;;;;4944542;29;20124;-64
2023/07/25 03:29:10;;;;;;;4.78;3.30;;;16.70;99.90;;;;;;4940128;29;20054;-64
2023/07/25 03:31:42;;;;;;;5.22;3.30;;;16.70;99.90;;;;;;4940521;29;20055;-64
2023/07/25 03:34:13;;;;;;;8.05;3.55;;;16.70;99.90;;;;;;4935828;29;20062;-64
2023/07/25 03:36:45;;;;;;;7.22;4.57;;;16.70;99.90;;;;;;4945366;29;20456;-63
2023/07/25 03:39:17;;;;;;;4.65;3.20;;;16.60;99.90;;;;;;4925982;29;20510;-64
2023/07/25 03:41:49;;;;;;;4.95;3.20;;;16.60;99.90;;;;;;4941687;29;20103;-64
2023/07/25 03:44:21;;;;;;;5.45;3.10;;;16.70;99.90;;;;;;4930337;29;20073;-64
2023/07/25 03:46:52;;;;;;;6.38;3.22;;;16.70;99.90;;;;;;4941529;29;20151;-64
2023/07/25 03:49:24;;;;;;;5.10;3.60;;;16.80;99.90;;;;;;4928956;29;20158;-64
2023/07/25 03:51:56;;;;;;;5.35;3.80;;;16.80;99.90;;;;;;4943075;29;20075;-64
2023/07/25 03:54:28;;;;;;;5.38;3.40;;;16.70;99.90;;;;;;4944192;29;20418;-64
2023/07/25 03:57:01;;;;;;;7.97;3.38;;;16.60;99.90;;;;;;4937571;29;20040;-64
2023/07/25 03:59:33;;;;;;;4.88;3.53;;;16.50;99.90;;;;;;4920953;29;20071;-64
2023/07/25 04:02:06;;;;;;;5.85;3.60;;;16.50;99.90;;;;;;4938231;29;20043;-64
2023/07/25 04:04:39;;;;;;;4.75;3.75;;;16.50;99.90;;;;;;4921153;29;20055;-65
2023/07/25 04:07:06;;;;;;;6.43;4.07;;;16.40;99.90;;;;;;4942304;29;20463;-66
2023/07/25 04:09:38;;;;;;;4.95;3.63;;;16.40;99.90;;;;;;4930237;29;20052;-64
2023/07/25 04:12:05;;;;;;;4.75;3.47;;;16.30;99.90;;;;;;4944469;29;20055;-64
2023/07/25 04:14:40;;;;;;;6.60;3.53;;;16.40;99.90;;;;;;4946372;29;20074;-65
2023/07/25 04:17:12;;;;;;;5.50;3.45;;;16.40;99.90;;;;;;4931983;29;20913;-64
2023/07/25 04:19:44;;;;;;;6.00;3.40;;;16.40;99.90;;;;;;4926615;29;20047;-64
2023/07/25 04:22:16;;;;;;;4.43;2.78;;;16.40;99.90;;;;;;4938329;29;20058;-65
2023/07/25 04:24:48;;;;;;;5.28;3.03;;;16.40;99.90;;;;;;4931934;29;20048;-65
2023/07/25 04:27:19;;;;;;;3.53;3.15;;;16.30;99.90;;;;;;4929014;29;20070;-65
2023/07/25 04:29:51;;;;;;;3.58;2.92;;;16.40;99.90;;;;;;4943220;29;21303;-64
2023/07/25 04:32:18;;;;;;;5.13;3.35;;;16.40;99.90;;;;;;4932493;29;20614;-64
2023/07/25 04:34:50;;;;;;;5.70;3.85;;;16.40;99.90;;;;;;4944376;29;20040;-64
2023/07/25 04:37:22;;;;;;;4.20;3.20;;;16.30;99.90;;;;;;4936607;29;20058;-64
2023/07/25 04:39:54;;;;;;;6.43;3.70;;;16.30;99.90;;;;;;4944209;29;20046;-64
2023/07/25 04:42:26;;;;;;;5.45;3.20;;;16.30;99.90;;;;;;4934750;29;20165;-64
2023/07/25 04:44:57;;;;;;;5.22;3.63;;;16.30;99.90;;;;;;4938863;29;20067;-67
2023/07/25 04:47:30;;;;;;;5.07;4.10;;;16.30;99.90;;;;;;4925893;29;20046;-65
2023/07/25 04:50:01;;;;;;;3.80;3.17;;;16.30;99.90;;;;;;4945167;29;20047;-64
2023/07/25 04:52:34;;;;;;;7.77;3.30;;;16.30;99.90;;;;;;4933683;29;20039;-64
2023/07/25 04:55:06;;;;;;;3.95;3.33;;;16.30;99.90;;;;;;4944871;29;20299;-65
2023/07/25 04:57:38;;;;;;;5.03;3.38;;;16.30;99.90;;;;;;4942997;29;20062;-64
2023/07/25 05:00:10;;;;;;;5.35;4.20;;;16.30;99.90;;;;;;4927267;29;20043;-64
2023/07/25 05:02:42;;;;;;;4.35;3.15;;;16.30;99.90;;;;;;4942684;29;20048;-64
2023/07/25 05:05:09;;;;;;;4.80;2.83;;;16.40;99.90;;;;;;4936505;29;20126;-64
2023/07/25 05:07:41;;;;;;;5.10;3.22;;;16.40;99.90;;;;;;4933955;29;20054;-64
2023/07/25 05:10:08;;;;;;;4.43;3.40;;;16.50;99.90;;;;;;4936839;29;20043;-64
2023/07/25 05:12:40;;;;;;;4.05;2.58;;;16.60;99.90;;;;;;4924961;29;20052;-64
2023/07/25 05:15:12;;;;;;;5.20;3.13;;;16.60;99.90;;;;;;4945055;29;20071;-65
2023/07/25 05:17:44;;;;;;;6.28;3.40;;;16.70;99.90;;;;;;4945070;29;20044;-64
2023/07/25 05:20:10;;;;;;;3.60;2.97;;;16.70;99.90;;;;;;4948538;29;20042;-64
2023/07/25 05:22:42;;;;;;;4.40;2.70;;;16.70;99.90;;;;;;4937402;29;20052;-64
2023/07/25 05:25:09;;;;;;;3.78;2.83;;;16.60;99.90;;;;;;4941207;28;20035;-64
2023/07/25 05:27:41;;;;;;;5.72;2.90;;;16.70;99.90;;;;;;4944489;29;20043;-65
2023/07/25 05:30:13;;;;;;;4.20;2.90;;;16.70;99.90;;;;;;4931845;29;20043;-64
2023/07/25 05:32:45;;;;;;;5.53;3.00;;;16.70;99.90;;;;;;4943507;29;20506;-64
2023/07/25 05:35:17;;;;;;;3.50;3.08;;;16.80;99.90;;;;;;4941626;29;20048;-64
2023/07/25 05:37:44;;;;;;;3.20;2.80;;;16.80;99.90;;;;;;4947267;29;20071;-65
2023/07/25 05:40:15;;;;;;;4.82;3.65;;;16.90;99.90;;;;;;4932102;29;20070;-65
2023/07/25 05:42:47;;;;;;;4.07;3.55;;;17.00;99.90;;;;;;4945268;29;20047;-64
2023/07/25 05:45:20;;;;;;;3.70;3.30;;;16.90;99.90;;;;;;4945620;29;20039;-65
2023/07/25 05:47:52;;;;;;;4.03;3.10;;;16.90;99.90;;;;;;4942104;29;20044;-64
2023/07/25 05:50:24;;;;;;;6.15;3.40;;;17.00;99.90;;;;;;4940730;29;20109;-64
2023/07/25 05:52:56;;;;;;;6.85;4.05;;;17.00;99.90;;;;;;4942085;29;20055;-64
2023/07/25 05:55:28;;;;;;;4.35;3.45;;;17.10;99.90;;;;;;4927666;29;20493;-64
2023/07/25 05:57:59;;;;;;;5.50;3.63;;;17.10;99.90;;;;;;4928998;29;20134;-64
2023/07/25 06:00:32;;;;;;;6.38;3.38;;;17.00;99.90;;;;;;4940102;29;20039;-64
2023/07/25 06:03:04;;;;;;;4.60;2.97;;;17.10;99.90;;;;;;4932784;29;20130;-63
2023/07/25 06:05:36;;;;;;;4.05;3.05;;;17.10;99.90;;;;;;4929149;29;20047;-65
2023/07/25 06:08:09;;;;;;;4.93;2.95;;;17.10;99.90;;;;;;4945391;29;20517;-64
2023/07/25 06:10:41;;;;;;;3.58;2.75;;;17.10;99.90;;;;;;4948375;29;20051;-64
2023/07/25 06:13:13;;;;;;;2.83;2.45;;;17.10;99.90;;;;;;4936014;29;20422;-64
2023/07/25 06:15:45;;;;;;;4.47;2.60;;;17.20;99.90;;;;;;4941156;29;20547;-64
2023/07/25 06:18:11;;;;;;;4.60;2.70;;;17.20;99.90;;;;;;4940914;29;20135;-64
2023/07/25 06:20:46;;;;;;;3.17;2.50;;;17.20;99.90;;;;;;4925857;29;20450;-64
2023/07/25 06:23:19;;;;;;;3.38;2.70;;;17.30;99.90;;;;;;4945313;29;20040;-64
2023/07/25 06:25:46;;;;;;;2.83;2.47;;;17.30;99.90;;;;;;4944008;29;20040;-64
2023/07/25 06:28:15;;;;;;;3.10;2.20;;;17.30;99.90;;;;;;4937516;29;20131;-64
2023/07/25 06:30:47;;;;;;;3.97;2.95;;;17.40;99.90;;;;;;4947427;29;20051;-64
2023/07/25 06:33:19;;;;;;;4.40;3.10;;;17.40;99.90;;;;;;4948175;29;20271;-64
2023/07/25 06:35:51;;;;;;;3.70;2.60;;;17.40;99.90;;;;;;4938973;29;20044;-64
2023/07/25 06:38:18;;;;;;;4.32;2.40;;;17.40;99.90;;;;;;4935158;29;20086;-64
2023/07/25 06:40:50;;;;;;;4.95;2.70;;;17.40;99.90;;;;;;4939365;29;20044;-65
2023/07/25 06:43:22;;;;;;;5.15;3.00;;;17.40;99.90;;;;;;4939488;29;20049;-64
2023/07/25 06:45:54;;;;;;;4.97;3.25;;;17.50;99.90;;;;;;4928916;29;20052;-64
2023/07/25 06:48:27;;;;;;;4.22;2.97;;;17.50;99.90;;;;;;4942635;29;20577;-64
2023/07/25 06:50:53;;;;;;;4.75;3.13;;;17.60;99.90;;;;;;4943834;29;20049;-64
2023/07/25 06:53:25;;;;;;;4.10;2.90;;;17.60;99.90;;;;;;4941555;29;20047;-64
2023/07/25 06:55:57;;;;;;;3.92;2.33;;;17.60;99.90;;;;;;4935625;29;20458;-64
2023/07/25 06:58:29;;;;;;;4.38;2.63;;;17.60;99.90;;;;;;4949423;29;20050;-64
2023/07/25 07:01:00;;;;;;;3.42;2.92;;;17.50;99.90;;;;;;4930547;29;20051;-64
2023/07/25 07:03:32;;;;;;;2.80;2.25;;;17.50;99.90;;;;;;4942790;29;20050;-64
2023/07/25 07:06:04;;;;;;;2.97;2.20;;;17.50;99.90;;;;;;4940002;29;20122;-64
2023/07/25 07:08:36;;;;;;;3.42;2.75;;;17.50;99.90;;;;;;4941311;29;20066;-64
2023/07/25 07:11:08;;;;;;;3.33;2.10;;;17.30;99.90;;;;;;4942984;29;20075;-64
2023/07/25 07:13:40;;;;;;;4.72;2.67;;;17.30;99.90;;;;;;4944208;29;20598;-64
2023/07/25 07:16:12;;;;;;;2.97;2.10;;;17.20;99.90;;;;;;4940504;29;20040;-64
2023/07/25 07:18:45;;;;;;;3.38;2.53;;;17.20;99.90;;;;;;4949283;29;20047;-64
2023/07/25 07:21:18;;;;;;;4.25;2.65;;;17.20;99.90;;;;;;4943556;29;20075;-64
2023/07/25 07:23:50;;;;;;;4.93;2.60;;;17.10;99.90;;;;;;4939670;29;20430;-64
2023/07/25 07:26:21;;;;;;;4.80;2.13;;;17.00;99.90;;;;;;4940202;29;20127;-64
2023/07/25 07:28:54;;;;;;;5.28;3.20;;;17.00;99.90;;;;;;4939941;29;20794;-64
2023/07/25 07:31:23;;;;;;;6.95;2.92;;;16.90;99.90;;;;;;4943811;29;20043;-64
2023/07/25 07:34:21;;;;;;;3.30;2.50;;;16.90;99.90;;;;;;4942351;29;20048;-64
2023/07/25 07:36:53;;;;;;;4.53;2.47;;;16.90;99.90;;;;;;4942399;29;20056;-64
2023/07/25 07:39:26;;;;;;;4.00;2.15;;;17.00;99.90;;;;;;4926830;29;20051;-64
2023/07/25 07:41:58;;;;;;;3.58;2.20;;;17.00;99.90;;;;;;4939505;29;20053;-64
2023/07/25 07:44:30;;;;;;;3.90;2.08;;;17.20;99.90;;;;;;4936910;29;20068;-64
2023/07/25 07:47:02;;;;;;;3.25;2.22;;;17.20;99.90;;;;;;4937749;29;20051;-64
2023/07/25 07:49:31;;;;;;;3.67;2.40;;;17.30;99.90;;;;;;4940932;29;20067;-64
2023/07/25 07:52:03;;;;;;;4.20;2.20;;;17.40;99.90;;;;;;4934022;29;20047;-64
2023/07/25 07:54:36;;;;;;;3.00;2.03;;;17.40;99.90;;;;;;4940617;29;20047;-64
2023/07/25 07:57:08;;;;;;;3.13;2.10;;;17.30;99.90;;;;;;4927756;29;20122;-64
2023/07/25 07:59:43;;;;;;;2.83;2.20;;;17.30;99.90;;;;;;4913761;29;20141;-64
2023/07/25 08:02:14;;;;;;;3.42;2.05;;;17.30;99.90;;;;;;4936735;29;20048;-64
2023/07/25 08:04:46;;;;;;;3.75;2.40;;;17.30;99.90;;;;;;4941994;29;20044;-64
2023/07/25 08:07:18;;;;;;;4.70;2.17;;;17.40;99.90;;;;;;4942632;29;20075;-64
2023/07/25 08:09:57;;;;;;;2.75;2.00;;;17.40;99.90;;;;;;4930612;29;20051;-64
2023/07/25 08:12:29;;;;;;;3.28;1.90;;;17.40;99.90;;;;;;4945467;29;20126;-64
2023/07/25 08:15:01;;;;;;;4.32;2.00;;;17.40;99.90;;;;;;4940694;29;20426;-65
2023/07/25 08:17:33;;;;;;;3.22;2.63;;;17.40;99.90;;;;;;4932100;29;20051;-65
2023/07/25 08:20:06;;;;;;;2.78;1.90;;;17.30;99.90;;;;;;4931437;29;20047;-66
2023/07/25 08:22:37;;;;;;;2.80;1.80;;;17.30;99.90;;;;;;4939132;29;20055;-65
2023/07/25 08:25:11;;;;;;;3.08;1.70;;;17.30;99.90;;;;;;4939129;29;20075;-66
2023/07/25 08:27:38;;;;;;;2.60;1.90;;;17.30;99.90;;;;;;4939513;29;20052;-65
2023/07/25 08:30:10;;;;;;;4.00;1.80;;;17.20;99.90;;;;;;4940954;29;20066;-65
2023/07/25 08:32:42;;;;;;;2.88;1.77;;;17.30;99.90;;;;;;4942066;29;20058;-65
2023/07/25 08:35:09;;;;;;;2.97;1.90;;;17.30;99.90;;;;;;4943285;29;20149;-64
2023/07/25 08:37:36;;;;;;;2.22;1.92;;;17.30;99.90;;;;;;4939289;29;20410;-65
2023/07/25 08:40:03;;;;;;;2.13;1.52;;;17.30;99.90;;;;;;4943806;29;20073;-65
2023/07/25 08:42:36;;;;;;;2.00;1.80;;;17.30;99.90;;;;;;4924265;29;20062;-64
2023/07/25 08:45:10;;;;;;;2.53;1.75;;;17.30;99.90;;;;;;4941285;29;20111;-65
2023/07/25 08:47:44;;;;;;;1.73;1.58;;;17.30;99.90;;;;;;4921878;28;20133;-63
2023/07/25 08:50:17;;;;;;;4.55;1.92;;;17.30;99.90;;;;;;4936372;29;20617;-63
2023/07/25 08:52:52;;;;;;;9.25;1.95;;;17.20;99.90;;;;;;4933391;29;20052;-63
2023/07/25 08:55:25;;;;;;;3.80;2.40;;;17.20;99.90;;;;;;4939057;29;20071;-64
2023/07/25 08:57:57;;;;;;;3.15;1.77;;;17.20;99.90;;;;;;4941686;29;20579;-64
2023/07/25 09:00:25;;;;;;;3.30;1.98;;;17.10;99.90;;;;;;4942066;29;20037;-64
2023/07/25 09:02:58;;;;;;;2.38;1.83;;;17.00;99.90;;;;;;4928518;29;20035;-64
2023/07/25 09:05:31;;;;;;;2.22;1.70;;;17.00;99.90;;;;;;4940558;29;20047;-64
2023/07/25 09:08:03;;;;;;;3.20;1.83;;;16.90;99.90;;;;;;4942502;29;20039;-63
2023/07/25 09:10:35;;;;;;;2.95;1.92;;;16.90;99.90;;;;;;4937755;29;20059;-63
2023/07/25 09:13:07;;;;;;;2.25;1.63;;;16.80;99.90;;;;;;4935502;29;20070;-63
2023/07/25 09:15:39;;;;;;;3.33;2.17;;;16.80;99.90;;;;;;4937981;29;20061;-63
2023/07/25 09:18:11;;;;;;;2.38;1.60;;;16.80;99.90;;;;;;4937359;29;20079;-64
2023/07/25 09:20:43;;;;;;;3.13;1.65;;;16.90;99.90;;;;;;4944235;29;20047;-64
2023/07/25 09:23:19;;;;;;;3.05;1.60;;;16.90;99.90;;;;;;4940914;29;20066;-64
2023/07/25 09:26:06;;;;;;;2.78;1.67;;;17.00;99.90;;;;;;4939292;29;20043;-65
2023/07/25 09:28:49;;;;;;;3.45;1.70;;;17.10;99.90;;;;;;4940315;29;20048;-65
2023/07/25 09:31:22;;;;;;;2.28;1.60;;;17.10;99.90;;;;;;4937985;29;20446;-63
2023/07/25 09:33:55;;;;;;;;;;;17.10;99.90;;;;;;4937984;29;20044;-64
2023/07/25 09:36:22;;;;;;;1.98;1.33;;;17.20;99.90;;;;;;4940951;29;20707;-64
2023/07/25 09:38:54;;;;;;;3.28;2.17;;;17.20;99.90;;;;;;4938379;29;20062;-64
2023/07/25 09:41:26;;;;;;;2.10;1.60;;;17.40;99.90;;;;;;4940054;29;20042;-64
2023/07/25 09:43:53;;;;;;;3.97;2.00;;;17.60;99.90;;;;;;4927926;29;20135;-65
2023/07/25 09:46:25;;;;;;;4.30;1.80;;;17.70;99.90;;;;;;4941292;29;20047;-65
2023/07/25 09:48:56;;;;;;;2.95;1.85;;;17.80;99.90;;;;;;4939097;29;20046;-65
2023/07/25 09:51:29;;;;;;;2.67;1.90;;;17.90;99.90;;;;;;4922367;29;20399;-65
2023/07/25 09:54:05;;;;;;;2.47;2.05;;;18.00;99.90;;;;;;4942418;29;20039;-64
2023/07/25 09:56:37;;;;;;;3.65;2.38;;;18.20;99.90;;;;;;4937854;29;20510;-65
2023/07/25 09:59:09;;;;;;;4.53;2.50;;;18.30;99.90;;;;;;4933876;29;20044;-65
2023/07/25 10:01:38;;;;;;;3.35;2.30;;;18.20;99.90;;;;;;4909219;29;20518;-64
2023/07/25 10:04:10;;;;;;;;;;;18.00;99.90;;;;;;4942223;29;20039;-64
2023/07/25 10:06:42;;;;;;;3.72;2.50;;;18.00;99.90;;;;;;4932111;29;20293;-65
2023/07/25 10:09:16;;;;;;;3.95;2.80;;;18.00;99.90;;;;;;4940602;29;20056;-63
2023/07/25 10:11:50;;;;;;;3.92;1.90;;;17.90;99.90;;;;;;4940734;29;20074;-65
2023/07/25 10:14:22;;;;;;;2.35;1.50;;;16.90;99.90;;;;;;4943332;29;20051;-62
2023/07/25 10:16:50;;;;;;;2.33;1.50;;;16.10;99.90;;;;;;4940382;29;20047;-63
2023/07/25 10:19:21;;;;;;;2.60;1.33;;;16.00;99.90;;;;;;4941025;29;20058;-64
2023/07/25 10:21:53;;;;;;;2.53;1.50;;;15.90;99.90;;;;;;4923984;29;20039;-64
2023/07/25 10:24:33;;;;;;;2.75;1.30;;;15.90;99.90;;;;;;4921280;29;20538;-63
2023/07/25 10:27:11;;;;;;;4.47;1.23;;;15.70;99.90;;;;;;4926172;29;20043;-63
2023/07/25 10:29:46;;;;;;;3.67;1.63;;;15.50;99.90;;;;;;4930590;29;20514;-63
2023/07/25 10:32:22;;;;;;;2.78;1.23;;;15.30;99.90;;;;;;4942473;29;20054;-64
2023/07/25 10:35:04;;;;;;;2.70;1.27;;;15.20;99.90;;;;;;4946919;29;20035;-63
2023/07/25 10:37:41;;;;;;;3.38;1.58;;;15.20;99.90;;;;;;4947011;29;20082;-63
2023/07/25 10:40:16;;;;;;;3.78;1.38;;;15.20;99.90;;;;;;4943134;29;20047;-64
2023/07/25 10:42:47;;;;;;;3.65;1.80;;;15.20;99.90;;;;;;4942668;29;20071;-64
2023/07/25 10:45:21;;;;;;;3.13;2.05;;;15.20;99.90;;;;;;4941211;29;20058;-64
2023/07/25 10:47:53;;;;;;;4.25;1.60;;;15.30;99.90;;;;;;4927305;29;20619;-64
2023/07/25 10:50:26;;;;;;;3.95;1.30;;;15.40;99.90;;;;;;4908150;29;20044;-64
2023/07/25 10:52:58;;;;;;;3.17;1.60;;;15.40;99.90;;;;;;4944700;29;20142;-63
2023/07/25 10:55:30;;;;;;;2.85;1.75;;;15.40;99.90;;;;;;4946543;29;20040;-64
2023/07/25 10:58:09;;;;;;;2.47;1.50;;;15.30;99.90;;;;;;4931958;29;20058;-64
2023/07/25 11:00:37;;;;;;;1.63;1.27;;;15.20;99.90;;;;;;4947226;29;20054;-64
2023/07/25 11:03:29;;;;;;;2.17;1.50;;;15.20;99.90;;;;;;4919758;29;20118;-64
2023/07/25 11:06:07;;;;;;;2.83;1.50;;;15.30;99.90;;;;;;4943688;29;20044;-64
2023/07/25 11:08:41;;;;;;;2.78;1.50;;;15.50;99.90;;;;;;4947179;29;20129;-64
2023/07/25 11:11:13;;;;;;;2.53;1.50;;;15.60;99.90;;;;;;4932392;29;20055;-64
2023/07/25 11:13:46;;;;;;;2.33;1.50;;;15.70;99.90;;;;;;4935029;29;20545;-64
2023/07/25 11:16:21;;;;;;;2.90;1.88;;;16.00;99.90;;;;;;4940924;29;20647;-65
2023/07/25 11:18:53;;;;;;;3.13;1.50;;;16.30;99.90;;;;;;4932927;29;20039;-64
2023/07/25 11:21:25;;;;;;;2.75;1.83;;;16.60;99.90;;;;;;4941509;29;20047;-64
2023/07/25 11:24:05;;;;;;;3.22;1.80;;;16.80;99.90;;;;;;4944261;29;20167;-64
2023/07/25 11:26:37;;;;;;;3.72;1.60;;;16.90;99.90;;;;;;4944478;29;20047;-65
2023/07/25 11:29:10;;;;;;;3.65;2.50;;;17.00;99.90;;;;;;4936203;29;20123;-65
2023/07/25 11:31:47;;;;;;;2.92;1.65;;;17.10;99.90;;;;;;4926410;29;20047;-65
2023/07/25 11:34:20;;;;;;;2.78;1.80;;;17.10;99.90;;;;;;4938916;29;20185;-64
2023/07/25 11:36:53;;;;;;;2.50;1.73;;;17.10;99.90;;;;;;4944731;29;20058;-65
2023/07/25 11:39:25;;;;;;;3.33;1.90;;;17.10;99.90;;;;;;4947447;29;20031;-65
2023/07/25 11:41:52;;;;;;;6.88;2.45;;;17.10;99.90;;;;;;4951650;29;20792;-65
2023/07/25 11:44:24;;;;;;;4.38;2.00;;;17.10;99.90;;;;;;4946817;29;20043;-64
2023/07/25 11:46:56;;;;;;;2.58;1.60;;;17.20;99.90;;;;;;4947090;29;20049;-65
2023/07/25 11:49:28;;;;;;;2.67;1.60;;;17.30;99.90;;;;;;4945555;29;20035;-65
2023/07/25 11:52:00;;;;;;;3.33;1.95;;;17.50;99.90;;;;;;4942257;29;20066;-65
2023/07/25 11:54:33;;;;;;;3.10;2.10;;;17.70;99.90;;;;;;4945285;29;20055;-64
2023/07/25 11:57:08;;;;;;;3.53;1.90;;;17.90;99.90;;;;;;4947603;29;20041;-64
2023/07/25 11:59:41;;;;;;;2.20;1.90;;;18.20;99.90;;;;;;4945454;29;20039;-64
2023/07/25 12:02:10;;;;;;;2.67;1.90;;;18.60;99.90;;;;;;4932825;29;20055;-64
2023/07/25 12:04:43;;;;;;;3.83;2.10;;;18.90;99.90;;;;;;4946829;29;20050;-64
2023/07/25 12:07:16;;;;;;;2.67;1.98;;;19.20;99.90;;;;;;4948047;29;20042;-64
2023/07/25 12:09:54;;;;;;;3.78;1.90;;;19.40;99.90;;;;;;4945038;29;20047;-64
2023/07/25 12:12:27;;;;;;;2.83;1.60;;;19.40;99.90;;;;;;4945471;29;20585;-65
2023/07/25 12:15:01;;;;;;;2.30;1.90;;;19.50;99.90;;;;;;4933377;29;20054;-64
2023/07/25 12:17:43;;;;;;;3.17;2.00;;;19.60;99.90;;;;;;4945614;29;20051;-64
2023/07/25 12:20:16;;;;;;;3.13;1.88;;;19.90;99.90;;;;;;4948581;29;20418;-64
2023/07/25 12:22:48;;;;;;;2.33;1.83;;;20.20;99.90;;;;;;4947236;29;20046;-64
2023/07/25 12:25:19;;;;;;;2.33;1.85;;;20.30;99.90;;;;;;4921295;29;20055;-64
2023/07/25 12:27:52;;;;;;;3.42;1.90;;;20.40;99.90;;;;;;4946476;29;20528;-63
2023/07/25 12:30:25;;;;;;;4.28;2.03;;;20.50;99.90;;;;;;4947479;29;20061;-64
2023/07/25 12:32:57;;;;;;;3.67;1.70;;;20.60;99.90;;;;;;4947861;29;20086;-64
2023/07/25 12:35:24;;;;;;;3.95;1.98;;;20.80;99.90;;;;;;4943777;29;20043;-63
2023/07/25 12:37:56;;;;;;;4.03;1.70;;;21.00;99.90;;;;;;4941544;29;20046;-64
2023/07/25 12:40:28;;;;;;;2.85;1.95;;;20.90;99.90;;;;;;4948016;29;20080;-64
2023/07/25 12:42:59;;;;;;;3.42;2.13;;;21.00;99.90;;;;;;4933837;29;20062;-64
2023/07/25 12:45:31;;;;;;;2.38;2.08;;;21.10;99.90;;;;;;4947792;29;20057;-64
2023/07/25 12:47:58;;;;;;;3.75;1.98;;;21.20;99.90;;;;;;4947245;29;20467;-64
2023/07/25 12:50:30;;;;;;;2.92;1.73;;;21.30;99.90;;;;;;4946582;29;20063;-64
2023/07/25 12:53:03;;;;;;;3.15;1.75;;;21.50;99.90;;;;;;4947113;29;20039;-64
2023/07/25 12:55:30;;;;;;;2.30;1.98;;;21.60;99.90;;;;;;4946622;29;20789;-64
2023/07/25 12:58:02;;;;;;;3.63;2.03;;;21.80;99.90;;;;;;4941502;29;20055;-64
2023/07/25 13:00:34;;;;;;;5.10;1.77;;;22.00;99.90;;;;;;4942510;29;20039;-65
2023/07/25 13:03:01;;;;;;;3.42;1.90;;;21.90;99.90;;;;;;4945119;29;20109;-64
2023/07/25 13:05:34;;;;;;;3.65;2.28;;;21.70;99.90;;;;;;4946534;29;20067;-65
2023/07/25 13:08:01;;;;;;;2.30;2.00;;;21.40;99.90;;;;;;4933657;29;20040;-64
2023/07/25 13:10:29;;;;;;;2.80;2.10;;;21.20;99.90;;;;;;4922931;29;20051;-65